Lienz, Austria
Current Conditions -  °F | °C
As of 4:58 AM on Monday 22 Dec 2014 (Local Time) from LIYW Reporting Station
Moderate Fog Moderate Fog  
Wind Chill: 35°   Ceiling: Unl
Heat Index: 38°   Visibility: 0.25mi
Dew Point: 38°   Wind: 5mph
Humidity: 100%   Direction: 30°NNE
Pressure: 30.4"   Gusts: NA
Location:  46.83°N, 12.76°E
Report Text: LIYW 220358Z AUTO 03004KT 0400 R05/0250 FG CLR 03/03 A3040 RMK AO2 SLP302 T00340034
Loading
Personal Weather Stations






























Interactive Weather Map New forecast layout! Learn more

10-Day Weather Forecast

Advertisements
Track Severe Weather on mobile